sensor_id;sensor_type;location;lat;lon;timestamp;P1;durP1;ratioP1;P2;durP2;ratioP2
8399;SDS011;4237;47.030;15.396;2022-12-18T00:01:26;138.03;;;27.67;;
8399;SDS011;4237;47.030;15.396;2022-12-18T00:03:55;104.90;;;28.67;;
8399;SDS011;4237;47.030;15.396;2022-12-18T00:06:24;94.43;;;28.47;;
8399;SDS011;4237;47.030;15.396;2022-12-18T00:08:53;66.87;;;26.30;;
8399;SDS011;4237;47.030;15.396;2022-12-18T00:11:22;89.83;;;28.57;;
8399;SDS011;4237;47.030;15.396;2022-12-18T00:13:51;73.07;;;25.10;;
8399;SDS011;4237;47.030;15.396;2022-12-18T00:16:21;82.23;;;25.30;;
8399;SDS011;4237;47.030;15.396;2022-12-18T00:18:52;63.17;;;24.10;;
8399;SDS011;4237;47.030;15.396;2022-12-18T00:21:21;84.73;;;25.60;;
8399;SDS011;4237;47.030;15.396;2022-12-18T00:23:49;67.90;;;24.30;;
8399;SDS011;4237;47.030;15.396;2022-12-18T00:26:27;83.23;;;25.17;;
8399;SDS011;4237;47.030;15.396;2022-12-18T00:28:51;82.63;;;24.60;;
8399;SDS011;4237;47.030;15.396;2022-12-18T00:31:20;79.63;;;25.13;;
8399;SDS011;4237;47.030;15.396;2022-12-18T00:33:49;73.93;;;24.27;;
8399;SDS011;4237;47.030;15.396;2022-12-18T00:36:19;60.90;;;24.33;;
8399;SDS011;4237;47.030;15.396;2022-12-18T00:38:47;79.87;;;24.17;;
8399;SDS011;4237;47.030;15.396;2022-12-18T00:41:16;55.63;;;22.70;;
8399;SDS011;4237;47.030;15.396;2022-12-18T00:44:03;59.33;;;23.77;;
8399;SDS011;4237;47.030;15.396;2022-12-18T00:46:32;66.87;;;24.20;;
8399;SDS011;4237;47.030;15.396;2022-12-18T00:49:00;96.50;;;24.17;;
8399;SDS011;4237;47.030;15.396;2022-12-18T00:51:29;83.37;;;24.77;;
8399;SDS011;4237;47.030;15.396;2022-12-18T00:53:57;59.50;;;23.27;;
8399;SDS011;4237;47.030;15.396;2022-12-18T00:56:25;62.53;;;24.67;;
8399;SDS011;4237;47.030;15.396;2022-12-18T00:58:53;78.73;;;23.70;;
8399;SDS011;4237;47.030;15.396;2022-12-18T01:01:22;99.40;;;24.97;;
8399;SDS011;4237;47.030;15.396;2022-12-18T01:03:50;115.97;;;23.97;;
8399;SDS011;4237;47.030;15.396;2022-12-18T01:06:18;122.63;;;24.23;;
8399;SDS011;4237;47.030;15.396;2022-12-18T01:08:47;90.00;;;24.23;;
8399;SDS011;4237;47.030;15.396;2022-12-18T01:11:16;81.90;;;22.97;;
8399;SDS011;4237;47.030;15.396;2022-12-18T01:13:45;133.10;;;25.67;;
8399;SDS011;4237;47.030;15.396;2022-12-18T01:16:14;98.60;;;21.87;;
8399;SDS011;4237;47.030;15.396;2022-12-18T01:18:42;89.47;;;19.73;;
8399;SDS011;4237;47.030;15.396;2022-12-18T01:21:12;60.17;;;18.93;;
8399;SDS011;4237;47.030;15.396;2022-12-18T01:23:41;76.37;;;19.50;;
8399;SDS011;4237;47.030;15.396;2022-12-18T01:26:13;84.03;;;20.53;;
8399;SDS011;4237;47.030;15.396;2022-12-18T01:28:42;48.57;;;20.23;;
8399;SDS011;4237;47.030;15.396;2022-12-18T01:31:21;48.07;;;19.53;;
8399;SDS011;4237;47.030;15.396;2022-12-18T01:33:50;43.97;;;18.80;;
8399;SDS011;4237;47.030;15.396;2022-12-18T01:36:20;45.20;;;20.87;;
8399;SDS011;4237;47.030;15.396;2022-12-18T01:38:49;51.27;;;22.07;;
8399;SDS011;4237;47.030;15.396;2022-12-18T01:41:18;62.53;;;22.60;;
8399;SDS011;4237;47.030;15.396;2022-12-18T01:43:51;59.10;;;23.33;;
8399;SDS011;4237;47.030;15.396;2022-12-18T01:46:20;85.17;;;21.93;;
8399;SDS011;4237;47.030;15.396;2022-12-18T01:48:50;81.33;;;22.27;;
8399;SDS011;4237;47.030;15.396;2022-12-18T01:51:18;39.37;;;19.53;;
8399;SDS011;4237;47.030;15.396;2022-12-18T01:53:48;47.40;;;21.23;;
8399;SDS011;4237;47.030;15.396;2022-12-18T01:56:18;45.07;;;20.00;;
8399;SDS011;4237;47.030;15.396;2022-12-18T01:59:02;46.57;;;19.67;;
8399;SDS011;4237;47.030;15.396;2022-12-18T02:01:31;43.40;;;19.87;;
8399;SDS011;4237;47.030;15.396;2022-12-18T02:04:19;48.67;;;21.73;;
8399;SDS011;4237;47.030;15.396;2022-12-18T02:06:50;33.03;;;18.30;;
8399;SDS011;4237;47.030;15.396;2022-12-18T02:09:19;38.60;;;19.87;;
8399;SDS011;4237;47.030;15.396;2022-12-18T02:14:32;41.57;;;20.33;;
8399;SDS011;4237;47.030;15.396;2022-12-18T02:25:10;115.30;;;24.77;;
8399;SDS011;4237;47.030;15.396;2022-12-18T02:30:22;85.37;;;20.07;;
8399;SDS011;4237;47.030;15.396;2022-12-18T02:32:50;59.37;;;19.83;;
8399;SDS011;4237;47.030;15.396;2022-12-18T02:35:20;105.30;;;19.80;;
8399;SDS011;4237;47.030;15.396;2022-12-18T02:37:49;70.90;;;17.77;;
8399;SDS011;4237;47.030;15.396;2022-12-18T02:40:18;58.43;;;17.80;;
8399;SDS011;4237;47.030;15.396;2022-12-18T02:42:47;51.43;;;17.20;;
8399;SDS011;4237;47.030;15.396;2022-12-18T02:45:16;45.80;;;18.53;;
8399;SDS011;4237;47.030;15.396;2022-12-18T02:47:45;42.50;;;18.60;;
8399;SDS011;4237;47.030;15.396;2022-12-18T02:55:33;31.57;;;17.10;;
8399;SDS011;4237;47.030;15.396;2022-12-18T02:57:54;36.40;;;17.77;;
8399;SDS011;4237;47.030;15.396;2022-12-18T03:00:20;36.43;;;17.07;;
8399;SDS011;4237;47.030;15.396;2022-12-18T03:02:51;37.97;;;18.33;;
8399;SDS011;4237;47.030;15.396;2022-12-18T03:05:27;36.57;;;17.23;;
8399;SDS011;4237;47.030;15.396;2022-12-18T03:08:06;36.97;;;18.27;;
8399;SDS011;4237;47.030;15.396;2022-12-18T03:10:34;38.80;;;18.10;;
8399;SDS011;4237;47.030;15.396;2022-12-18T03:13:07;33.97;;;17.30;;
8399;SDS011;4237;47.030;15.396;2022-12-18T03:15:42;31.20;;;16.37;;
8399;SDS011;4237;47.030;15.396;2022-12-18T03:18:07;36.53;;;18.00;;
8399;SDS011;4237;47.030;15.396;2022-12-18T03:20:35;34.07;;;17.80;;
8399;SDS011;4237;47.030;15.396;2022-12-18T03:23:09;31.47;;;16.20;;
8399;SDS011;4237;47.030;15.396;2022-12-18T03:25:38;28.07;;;15.30;;
8399;SDS011;4237;47.030;15.396;2022-12-18T03:28:07;29.77;;;15.63;;
8399;SDS011;4237;47.030;15.396;2022-12-18T03:30:37;29.80;;;13.37;;
8399;SDS011;4237;47.030;15.396;2022-12-18T03:33:08;25.30;;;13.27;;
8399;SDS011;4237;47.030;15.396;2022-12-18T03:35:37;27.23;;;13.13;;
8399;SDS011;4237;47.030;15.396;2022-12-18T03:38:05;25.47;;;12.83;;
8399;SDS011;4237;47.030;15.396;2022-12-18T03:40:45;24.73;;;12.33;;
8399;SDS011;4237;47.030;15.396;2022-12-18T03:43:16;22.50;;;12.03;;
8399;SDS011;4237;47.030;15.396;2022-12-18T03:45:43;23.87;;;12.47;;
8399;SDS011;4237;47.030;15.396;2022-12-18T03:48:15;20.73;;;11.40;;
8399;SDS011;4237;47.030;15.396;2022-12-18T03:50:45;22.57;;;11.63;;
8399;SDS011;4237;47.030;15.396;2022-12-18T03:53:15;20.63;;;11.83;;
8399;SDS011;4237;47.030;15.396;2022-12-18T03:55:43;21.40;;;11.80;;
8399;SDS011;4237;47.030;15.396;2022-12-18T03:58:12;21.50;;;11.00;;
8399;SDS011;4237;47.030;15.396;2022-12-18T04:00:41;20.50;;;11.17;;
8399;SDS011;4237;47.030;15.396;2022-12-18T04:03:10;19.70;;;11.00;;
8399;SDS011;4237;47.030;15.396;2022-12-18T04:05:40;19.53;;;11.00;;
8399;SDS011;4237;47.030;15.396;2022-12-18T04:08:09;20.27;;;10.63;;
8399;SDS011;4237;47.030;15.396;2022-12-18T04:10:37;21.93;;;10.63;;
8399;SDS011;4237;47.030;15.396;2022-12-18T04:13:05;21.77;;;11.00;;
8399;SDS011;4237;47.030;15.396;2022-12-18T04:15:34;22.50;;;11.73;;
8399;SDS011;4237;47.030;15.396;2022-12-18T04:18:03;26.97;;;14.20;;
8399;SDS011;4237;47.030;15.396;2022-12-18T04:20:31;33.47;;;15.67;;
8399;SDS011;4237;47.030;15.396;2022-12-18T04:22:59;26.50;;;13.37;;
8399;SDS011;4237;47.030;15.396;2022-12-18T04:25:28;26.73;;;14.13;;
8399;SDS011;4237;47.030;15.396;2022-12-18T04:27:56;23.10;;;13.07;;
8399;SDS011;4237;47.030;15.396;2022-12-18T04:30:24;25.60;;;13.53;;
8399;SDS011;4237;47.030;15.396;2022-12-18T04:32:52;20.40;;;12.20;;
8399;SDS011;4237;47.030;15.396;2022-12-18T04:35:20;25.30;;;11.97;;
8399;SDS011;4237;47.030;15.396;2022-12-18T04:37:48;23.27;;;12.30;;
8399;SDS011;4237;47.030;15.396;2022-12-18T04:40:17;19.90;;;11.67;;
8399;SDS011;4237;47.030;15.396;2022-12-18T04:42:45;21.37;;;11.70;;
8399;SDS011;4237;47.030;15.396;2022-12-18T04:45:13;19.93;;;12.00;;
8399;SDS011;4237;47.030;15.396;2022-12-18T04:47:41;20.03;;;10.93;;
8399;SDS011;4237;47.030;15.396;2022-12-18T04:50:09;25.10;;;12.03;;
8399;SDS011;4237;47.030;15.396;2022-12-18T04:52:38;18.23;;;10.73;;
8399;SDS011;4237;47.030;15.396;2022-12-18T04:55:06;21.97;;;11.77;;
8399;SDS011;4237;47.030;15.396;2022-12-18T04:57:34;23.07;;;12.10;;
8399;SDS011;4237;47.030;15.396;2022-12-18T05:00:03;22.80;;;11.53;;
8399;SDS011;4237;47.030;15.396;2022-12-18T05:02:33;23.27;;;11.87;;
8399;SDS011;4237;47.030;15.396;2022-12-18T05:05:01;21.87;;;10.63;;
8399;SDS011;4237;47.030;15.396;2022-12-18T05:07:29;24.53;;;11.90;;
8399;SDS011;4237;47.030;15.396;2022-12-18T05:10:05;26.73;;;14.77;;
8399;SDS011;4237;47.030;15.396;2022-12-18T05:12:33;34.57;;;17.20;;
8399;SDS011;4237;47.030;15.396;2022-12-18T05:15:04;28.00;;;14.60;;
8399;SDS011;4237;47.030;15.396;2022-12-18T05:17:32;25.47;;;13.73;;
8399;SDS011;4237;47.030;15.396;2022-12-18T05:20:00;25.80;;;13.17;;
8399;SDS011;4237;47.030;15.396;2022-12-18T05:22:28;22.80;;;12.87;;
8399;SDS011;4237;47.030;15.396;2022-12-18T05:24:57;22.83;;;11.90;;
8399;SDS011;4237;47.030;15.396;2022-12-18T05:27:25;20.10;;;11.43;;
8399;SDS011;4237;47.030;15.396;2022-12-18T05:29:53;22.07;;;11.13;;
8399;SDS011;4237;47.030;15.396;2022-12-18T05:32:21;26.27;;;13.27;;
8399;SDS011;4237;47.030;15.396;2022-12-18T05:34:49;25.67;;;14.23;;
8399;SDS011;4237;47.030;15.396;2022-12-18T05:37:17;32.10;;;16.17;;
8399;SDS011;4237;47.030;15.396;2022-12-18T05:39:46;31.47;;;16.03;;
8399;SDS011;4237;47.030;15.396;2022-12-18T05:42:14;35.80;;;16.80;;
8399;SDS011;4237;47.030;15.396;2022-12-18T05:44:43;29.43;;;15.20;;
8399;SDS011;4237;47.030;15.396;2022-12-18T05:47:11;26.53;;;13.63;;
8399;SDS011;4237;47.030;15.396;2022-12-18T05:49:39;25.50;;;12.70;;
8399;SDS011;4237;47.030;15.396;2022-12-18T05:52:08;21.70;;;11.77;;
8399;SDS011;4237;47.030;15.396;2022-12-18T05:54:36;21.33;;;10.97;;
8399;SDS011;4237;47.030;15.396;2022-12-18T05:57:04;17.13;;;10.03;;
8399;SDS011;4237;47.030;15.396;2022-12-18T05:59:33;17.10;;;10.20;;
8399;SDS011;4237;47.030;15.396;2022-12-18T06:02:01;18.47;;;10.37;;
8399;SDS011;4237;47.030;15.396;2022-12-18T06:04:29;18.37;;;10.10;;
8399;SDS011;4237;47.030;15.396;2022-12-18T06:06:57;22.30;;;11.57;;
8399;SDS011;4237;47.030;15.396;2022-12-18T06:09:25;19.97;;;11.53;;
8399;SDS011;4237;47.030;15.396;2022-12-18T06:11:54;19.97;;;10.70;;
8399;SDS011;4237;47.030;15.396;2022-12-18T06:14:22;20.33;;;11.00;;
8399;SDS011;4237;47.030;15.396;2022-12-18T06:16:50;20.57;;;11.50;;
8399;SDS011;4237;47.030;15.396;2022-12-18T06:19:19;21.40;;;12.00;;
8399;SDS011;4237;47.030;15.396;2022-12-18T06:21:47;25.73;;;12.63;;
8399;SDS011;4237;47.030;15.396;2022-12-18T06:24:16;30.63;;;15.33;;
8399;SDS011;4237;47.030;15.396;2022-12-18T06:26:44;20.97;;;12.17;;
8399;SDS011;4237;47.030;15.396;2022-12-18T06:29:12;23.40;;;12.27;;
8399;SDS011;4237;47.030;15.396;2022-12-18T06:31:41;23.23;;;13.00;;
8399;SDS011;4237;47.030;15.396;2022-12-18T06:34:09;21.43;;;11.87;;
8399;SDS011;4237;47.030;15.396;2022-12-18T06:36:37;18.53;;;11.30;;
8399;SDS011;4237;47.030;15.396;2022-12-18T06:39:05;21.00;;;11.67;;
8399;SDS011;4237;47.030;15.396;2022-12-18T06:41:33;24.10;;;13.07;;
8399;SDS011;4237;47.030;15.396;2022-12-18T06:44:02;21.20;;;12.27;;
8399;SDS011;4237;47.030;15.396;2022-12-18T06:46:30;26.23;;;13.27;;
8399;SDS011;4237;47.030;15.396;2022-12-18T06:48:59;25.97;;;13.03;;
8399;SDS011;4237;47.030;15.396;2022-12-18T06:51:27;29.40;;;16.03;;
8399;SDS011;4237;47.030;15.396;2022-12-18T06:53:55;23.77;;;13.50;;
8399;SDS011;4237;47.030;15.396;2022-12-18T06:56:24;18.00;;;11.20;;
8399;SDS011;4237;47.030;15.396;2022-12-18T06:58:52;21.03;;;12.00;;
8399;SDS011;4237;47.030;15.396;2022-12-18T07:01:21;21.90;;;13.30;;
8399;SDS011;4237;47.030;15.396;2022-12-18T07:03:53;25.00;;;13.97;;
8399;SDS011;4237;47.030;15.396;2022-12-18T07:06:22;23.60;;;13.27;;
8399;SDS011;4237;47.030;15.396;2022-12-18T07:08:51;25.07;;;14.77;;
8399;SDS011;4237;47.030;15.396;2022-12-18T07:11:20;37.67;;;20.53;;
8399;SDS011;4237;47.030;15.396;2022-12-18T07:13:48;46.50;;;24.40;;
8399;SDS011;4237;47.030;15.396;2022-12-18T07:16:17;30.33;;;17.30;;
8399;SDS011;4237;47.030;15.396;2022-12-18T07:18:46;25.37;;;15.37;;
8399;SDS011;4237;47.030;15.396;2022-12-18T07:21:16;24.00;;;14.13;;
8399;SDS011;4237;47.030;15.396;2022-12-18T07:23:44;22.77;;;13.57;;
8399;SDS011;4237;47.030;15.396;2022-12-18T07:26:14;22.07;;;13.70;;
8399;SDS011;4237;47.030;15.396;2022-12-18T07:28:43;22.93;;;13.73;;
8399;SDS011;4237;47.030;15.396;2022-12-18T07:31:12;20.07;;;12.53;;
8399;SDS011;4237;47.030;15.396;2022-12-18T07:33:41;21.90;;;12.27;;
8399;SDS011;4237;47.030;15.396;2022-12-18T07:36:10;18.73;;;11.93;;
8399;SDS011;4237;47.030;15.396;2022-12-18T07:38:38;19.47;;;13.10;;
8399;SDS011;4237;47.030;15.396;2022-12-18T07:41:08;16.43;;;11.20;;
8399;SDS011;4237;47.030;15.396;2022-12-18T07:43:36;19.80;;;11.40;;
8399;SDS011;4237;47.030;15.396;2022-12-18T07:46:06;19.97;;;12.90;;
8399;SDS011;4237;47.030;15.396;2022-12-18T07:48:34;20.30;;;12.97;;
8399;SDS011;4237;47.030;15.396;2022-12-18T07:51:04;17.47;;;12.07;;
8399;SDS011;4237;47.030;15.396;2022-12-18T07:53:33;19.30;;;12.00;;
8399;SDS011;4237;47.030;15.396;2022-12-18T07:56:03;21.30;;;13.07;;
8399;SDS011;4237;47.030;15.396;2022-12-18T07:58:32;16.67;;;11.57;;
8399;SDS011;4237;47.030;15.396;2022-12-18T08:01:07;21.50;;;12.73;;
8399;SDS011;4237;47.030;15.396;2022-12-18T08:03:36;19.70;;;12.93;;
8399;SDS011;4237;47.030;15.396;2022-12-18T08:06:05;19.73;;;12.20;;
8399;SDS011;4237;47.030;15.396;2022-12-18T08:08:34;18.13;;;11.67;;
8399;SDS011;4237;47.030;15.396;2022-12-18T08:11:03;18.57;;;12.17;;
8399;SDS011;4237;47.030;15.396;2022-12-18T08:13:31;18.37;;;11.00;;
8399;SDS011;4237;47.030;15.396;2022-12-18T08:16:04;14.90;;;9.40;;
8399;SDS011;4237;47.030;15.396;2022-12-18T08:18:33;17.80;;;9.97;;
8399;SDS011;4237;47.030;15.396;2022-12-18T08:21:08;15.50;;;10.70;;
8399;SDS011;4237;47.030;15.396;2022-12-18T08:23:37;12.97;;;9.80;;
8399;SDS011;4237;47.030;15.396;2022-12-18T08:26:05;14.00;;;9.87;;
8399;SDS011;4237;47.030;15.396;2022-12-18T08:28:34;15.40;;;10.97;;
8399;SDS011;4237;47.030;15.396;2022-12-18T08:31:03;14.43;;;10.53;;
8399;SDS011;4237;47.030;15.396;2022-12-18T08:33:31;13.47;;;10.40;;
8399;SDS011;4237;47.030;15.396;2022-12-18T08:35:59;15.40;;;12.10;;
8399;SDS011;4237;47.030;15.396;2022-12-18T08:38:28;17.33;;;13.37;;
8399;SDS011;4237;47.030;15.396;2022-12-18T08:40:59;19.23;;;13.87;;
8399;SDS011;4237;47.030;15.396;2022-12-18T08:43:28;15.37;;;12.13;;
8399;SDS011;4237;47.030;15.396;2022-12-18T08:46:01;17.10;;;12.60;;
8399;SDS011;4237;47.030;15.396;2022-12-18T08:48:29;17.37;;;12.67;;
8399;SDS011;4237;47.030;15.396;2022-12-18T08:50:57;19.53;;;13.03;;
8399;SDS011;4237;47.030;15.396;2022-12-18T08:53:26;19.07;;;12.63;;
8399;SDS011;4237;47.030;15.396;2022-12-18T08:55:56;19.50;;;11.77;;
8399;SDS011;4237;47.030;15.396;2022-12-18T08:58:25;14.90;;;11.30;;
8399;SDS011;4237;47.030;15.396;2022-12-18T09:00:53;13.93;;;10.63;;
8399;SDS011;4237;47.030;15.396;2022-12-18T09:03:21;17.13;;;12.97;;
8399;SDS011;4237;47.030;15.396;2022-12-18T09:05:49;17.23;;;12.80;;
8399;SDS011;4237;47.030;15.396;2022-12-18T09:08:18;19.00;;;13.80;;
8399;SDS011;4237;47.030;15.396;2022-12-18T09:10:47;15.93;;;12.57;;
8399;SDS011;4237;47.030;15.396;2022-12-18T09:13:16;19.50;;;13.80;;
8399;SDS011;4237;47.030;15.396;2022-12-18T09:15:45;18.63;;;13.70;;
8399;SDS011;4237;47.030;15.396;2022-12-18T09:18:14;18.70;;;13.67;;
8399;SDS011;4237;47.030;15.396;2022-12-18T09:20:43;20.67;;;14.27;;
8399;SDS011;4237;47.030;15.396;2022-12-18T09:23:11;22.53;;;14.60;;
8399;SDS011;4237;47.030;15.396;2022-12-18T09:25:39;17.50;;;13.40;;
8399;SDS011;4237;47.030;15.396;2022-12-18T09:28:12;19.70;;;14.60;;
8399;SDS011;4237;47.030;15.396;2022-12-18T09:30:43;19.97;;;14.97;;
8399;SDS011;4237;47.030;15.396;2022-12-18T09:33:12;15.60;;;12.00;;
8399;SDS011;4237;47.030;15.396;2022-12-18T09:35:41;17.83;;;14.13;;
8399;SDS011;4237;47.030;15.396;2022-12-18T09:38:14;18.70;;;14.73;;
8399;SDS011;4237;47.030;15.396;2022-12-18T09:40:44;20.93;;;15.53;;
8399;SDS011;4237;47.030;15.396;2022-12-18T09:43:19;17.83;;;13.80;;
8399;SDS011;4237;47.030;15.396;2022-12-18T09:45:43;20.37;;;16.27;;
8399;SDS011;4237;47.030;15.396;2022-12-18T09:48:23;19.37;;;12.73;;
8399;SDS011;4237;47.030;15.396;2022-12-18T09:50:47;19.17;;;13.60;;
8399;SDS011;4237;47.030;15.396;2022-12-18T09:53:19;19.07;;;13.90;;
8399;SDS011;4237;47.030;15.396;2022-12-18T09:55:46;19.50;;;14.13;;
8399;SDS011;4237;47.030;15.396;2022-12-18T09:58:25;18.83;;;14.30;;
8399;SDS011;4237;47.030;15.396;2022-12-18T10:00:51;19.73;;;14.20;;
8399;SDS011;4237;47.030;15.396;2022-12-18T10:03:18;20.10;;;14.83;;
8399;SDS011;4237;47.030;15.396;2022-12-18T10:05:51;23.47;;;16.57;;
8399;SDS011;4237;47.030;15.396;2022-12-18T10:11:03;24.50;;;16.07;;
8399;SDS011;4237;47.030;15.396;2022-12-18T10:13:38;24.67;;;16.80;;
8399;SDS011;4237;47.030;15.396;2022-12-18T10:16:12;23.50;;;15.47;;
8399;SDS011;4237;47.030;15.396;2022-12-18T10:21:18;27.97;;;16.83;;
8399;SDS011;4237;47.030;15.396;2022-12-18T10:23:53;24.33;;;15.00;;
8399;SDS011;4237;47.030;15.396;2022-12-18T10:26:20;23.70;;;14.67;;
8399;SDS011;4237;47.030;15.396;2022-12-18T10:28:48;25.47;;;15.20;;
8399;SDS011;4237;47.030;15.396;2022-12-18T10:31:18;24.17;;;14.57;;
8399;SDS011;4237;47.030;15.396;2022-12-18T10:33:47;23.63;;;14.77;;
8399;SDS011;4237;47.030;15.396;2022-12-18T10:36:16;23.30;;;14.40;;
8399;SDS011;4237;47.030;15.396;2022-12-18T10:38:45;22.60;;;14.23;;
8399;SDS011;4237;47.030;15.396;2022-12-18T10:43:51;24.13;;;14.57;;
8399;SDS011;4237;47.030;15.396;2022-12-18T10:46:19;22.87;;;13.70;;
8399;SDS011;4237;47.030;15.396;2022-12-18T10:51:22;26.37;;;15.97;;
8399;SDS011;4237;47.030;15.396;2022-12-18T10:53:52;24.53;;;15.57;;
8399;SDS011;4237;47.030;15.396;2022-12-18T10:56:20;31.80;;;17.30;;
8399;SDS011;4237;47.030;15.396;2022-12-18T10:58:56;31.83;;;17.30;;
8399;SDS011;4237;47.030;15.396;2022-12-18T11:01:24;29.93;;;17.60;;
8399;SDS011;4237;47.030;15.396;2022-12-18T11:06:25;29.87;;;17.47;;
8399;SDS011;4237;47.030;15.396;2022-12-18T11:09:04;34.10;;;20.03;;
8399;SDS011;4237;47.030;15.396;2022-12-18T11:11:33;33.57;;;18.73;;
8399;SDS011;4237;47.030;15.396;2022-12-18T11:14:05;34.63;;;20.13;;
8399;SDS011;4237;47.030;15.396;2022-12-18T11:16:42;38.33;;;20.67;;
8399;SDS011;4237;47.030;15.396;2022-12-18T11:19:11;33.37;;;19.57;;
8399;SDS011;4237;47.030;15.396;2022-12-18T11:21:39;39.37;;;19.73;;
8399;SDS011;4237;47.030;15.396;2022-12-18T11:24:17;34.37;;;20.60;;
8399;SDS011;4237;47.030;15.396;2022-12-18T11:26:38;33.13;;;19.40;;
8399;SDS011;4237;47.030;15.396;2022-12-18T11:29:09;33.07;;;19.27;;
8399;SDS011;4237;47.030;15.396;2022-12-18T11:31:38;36.83;;;20.20;;
8399;SDS011;4237;47.030;15.396;2022-12-18T11:34:13;32.93;;;19.13;;
8399;SDS011;4237;47.030;15.396;2022-12-18T11:36:42;34.63;;;19.60;;
8399;SDS011;4237;47.030;15.396;2022-12-18T11:44:35;33.20;;;20.37;;
8399;SDS011;4237;47.030;15.396;2022-12-18T11:47:03;34.97;;;19.97;;
8399;SDS011;4237;47.030;15.396;2022-12-18T11:49:37;31.27;;;19.40;;
8399;SDS011;4237;47.030;15.396;2022-12-18T11:52:04;31.27;;;19.27;;
8399;SDS011;4237;47.030;15.396;2022-12-18T11:54:31;34.57;;;21.13;;
8399;SDS011;4237;47.030;15.396;2022-12-18T11:59:48;37.57;;;20.47;;
8399;SDS011;4237;47.030;15.396;2022-12-18T12:02:21;38.67;;;22.10;;
8399;SDS011;4237;47.030;15.396;2022-12-18T12:05:10;32.50;;;19.10;;
8399;SDS011;4237;47.030;15.396;2022-12-18T12:07:46;38.20;;;20.53;;
8399;SDS011;4237;47.030;15.396;2022-12-18T12:10:25;38.07;;;20.83;;
8399;SDS011;4237;47.030;15.396;2022-12-18T12:12:55;35.00;;;20.80;;
8399;SDS011;4237;47.030;15.396;2022-12-18T12:20:45;35.57;;;20.70;;
8399;SDS011;4237;47.030;15.396;2022-12-18T12:26:13;40.27;;;21.93;;
8399;SDS011;4237;47.030;15.396;2022-12-18T12:29:01;40.50;;;21.67;;
8399;SDS011;4237;47.030;15.396;2022-12-18T12:34:09;38.97;;;21.93;;
8399;SDS011;4237;47.030;15.396;2022-12-18T12:39:13;41.97;;;22.90;;
8399;SDS011;4237;47.030;15.396;2022-12-18T12:41:40;41.00;;;22.67;;
8399;SDS011;4237;47.030;15.396;2022-12-18T12:44:28;39.77;;;21.93;;
8399;SDS011;4237;47.030;15.396;2022-12-18T12:46:58;39.70;;;21.87;;
8399;SDS011;4237;47.030;15.396;2022-12-18T12:49:27;39.53;;;23.30;;
8399;SDS011;4237;47.030;15.396;2022-12-18T12:52:00;42.77;;;22.97;;
8399;SDS011;4237;47.030;15.396;2022-12-18T12:54:28;37.70;;;22.33;;
8399;SDS011;4237;47.030;15.396;2022-12-18T12:57:19;41.00;;;22.50;;
8399;SDS011;4237;47.030;15.396;2022-12-18T13:00:05;42.17;;;21.97;;
8399;SDS011;4237;47.030;15.396;2022-12-18T13:02:28;39.23;;;22.13;;
8399;SDS011;4237;47.030;15.396;2022-12-18T13:04:57;42.60;;;22.70;;
8399;SDS011;4237;47.030;15.396;2022-12-18T13:07:37;39.00;;;22.47;;
8399;SDS011;4237;47.030;15.396;2022-12-18T13:23:29;51.20;;;25.03;;
8399;SDS011;4237;47.030;15.396;2022-12-18T13:25:58;46.10;;;23.77;;
8399;SDS011;4237;47.030;15.396;2022-12-18T13:31:03;50.27;;;25.47;;
8399;SDS011;4237;47.030;15.396;2022-12-18T13:36:02;51.20;;;25.73;;
8399;SDS011;4237;47.030;15.396;2022-12-18T13:41:02;44.47;;;24.60;;
8399;SDS011;4237;47.030;15.396;2022-12-18T13:48:56;48.40;;;24.63;;
8399;SDS011;4237;47.030;15.396;2022-12-18T13:51:25;48.10;;;25.37;;
8399;SDS011;4237;47.030;15.396;2022-12-18T13:53:55;54.03;;;26.17;;
8399;SDS011;4237;47.030;15.396;2022-12-18T13:56:30;48.83;;;25.60;;
8399;SDS011;4237;47.030;15.396;2022-12-18T14:01:50;53.13;;;25.37;;
8399;SDS011;4237;47.030;15.396;2022-12-18T14:04:23;46.50;;;25.70;;
8399;SDS011;4237;47.030;15.396;2022-12-18T14:06:46;48.53;;;24.97;;
8399;SDS011;4237;47.030;15.396;2022-12-18T14:09:15;47.57;;;24.33;;
8399;SDS011;4237;47.030;15.396;2022-12-18T14:11:48;44.57;;;23.57;;
8399;SDS011;4237;47.030;15.396;2022-12-18T14:14:17;48.20;;;24.07;;
8399;SDS011;4237;47.030;15.396;2022-12-18T14:31:30;53.23;;;25.63;;
8399;SDS011;4237;47.030;15.396;2022-12-18T14:33:59;52.33;;;26.20;;
8399;SDS011;4237;47.030;15.396;2022-12-18T14:36:28;52.07;;;26.93;;
8399;SDS011;4237;47.030;15.396;2022-12-18T14:38:57;54.37;;;27.53;;
8399;SDS011;4237;47.030;15.396;2022-12-18T14:41:26;48.30;;;23.03;;
8399;SDS011;4237;47.030;15.396;2022-12-18T14:43:56;45.90;;;23.60;;
8399;SDS011;4237;47.030;15.396;2022-12-18T14:46:27;45.87;;;23.10;;
8399;SDS011;4237;47.030;15.396;2022-12-18T14:48:55;45.83;;;23.90;;
8399;SDS011;4237;47.030;15.396;2022-12-18T14:51:25;44.47;;;23.17;;
8399;SDS011;4237;47.030;15.396;2022-12-18T14:53:55;42.30;;;21.90;;
8399;SDS011;4237;47.030;15.396;2022-12-18T14:56:31;45.03;;;22.00;;
8399;SDS011;4237;47.030;15.396;2022-12-18T14:58:58;49.83;;;23.50;;
8399;SDS011;4237;47.030;15.396;2022-12-18T15:01:28;47.27;;;23.63;;
8399;SDS011;4237;47.030;15.396;2022-12-18T15:03:59;44.73;;;22.17;;
8399;SDS011;4237;47.030;15.396;2022-12-18T15:06:34;43.97;;;22.63;;
8399;SDS011;4237;47.030;15.396;2022-12-18T15:09:05;50.77;;;25.07;;
8399;SDS011;4237;47.030;15.396;2022-12-18T15:11:34;45.97;;;23.70;;
8399;SDS011;4237;47.030;15.396;2022-12-18T15:16:54;44.73;;;22.80;;
8399;SDS011;4237;47.030;15.396;2022-12-18T15:19:26;40.50;;;22.03;;
8399;SDS011;4237;47.030;15.396;2022-12-18T15:21:53;48.10;;;24.03;;
8399;SDS011;4237;47.030;15.396;2022-12-18T15:24:23;46.90;;;23.37;;
8399;SDS011;4237;47.030;15.396;2022-12-18T15:26:51;41.43;;;22.73;;
8399;SDS011;4237;47.030;15.396;2022-12-18T15:29:21;44.30;;;22.70;;
8399;SDS011;4237;47.030;15.396;2022-12-18T15:31:59;55.53;;;27.27;;
8399;SDS011;4237;47.030;15.396;2022-12-18T15:34:29;47.40;;;23.43;;
8399;SDS011;4237;47.030;15.396;2022-12-18T15:36:58;49.87;;;25.00;;
8399;SDS011;4237;47.030;15.396;2022-12-18T15:39:28;44.97;;;23.10;;
8399;SDS011;4237;47.030;15.396;2022-12-18T15:41:59;45.17;;;23.57;;
8399;SDS011;4237;47.030;15.396;2022-12-18T15:44:45;43.20;;;23.40;;
8399;SDS011;4237;47.030;15.396;2022-12-18T15:47:13;43.90;;;23.43;;
8399;SDS011;4237;47.030;15.396;2022-12-18T15:49:42;48.47;;;24.67;;
8399;SDS011;4237;47.030;15.396;2022-12-18T15:52:11;51.67;;;25.97;;
8399;SDS011;4237;47.030;15.396;2022-12-18T15:54:42;49.73;;;25.63;;
8399;SDS011;4237;47.030;15.396;2022-12-18T15:57:29;46.97;;;24.00;;
8399;SDS011;4237;47.030;15.396;2022-12-18T15:59:58;48.53;;;25.03;;
8399;SDS011;4237;47.030;15.396;2022-12-18T16:02:27;52.00;;;26.17;;
8399;SDS011;4237;47.030;15.396;2022-12-18T16:04:56;46.10;;;24.10;;
8399;SDS011;4237;47.030;15.396;2022-12-18T16:07:25;56.70;;;27.67;;
8399;SDS011;4237;47.030;15.396;2022-12-18T16:09:54;48.40;;;25.07;;
8399;SDS011;4237;47.030;15.396;2022-12-18T16:12:24;54.47;;;28.47;;
8399;SDS011;4237;47.030;15.396;2022-12-18T16:14:53;51.63;;;26.27;;
8399;SDS011;4237;47.030;15.396;2022-12-18T16:17:22;50.97;;;26.00;;
8399;SDS011;4237;47.030;15.396;2022-12-18T16:19:52;50.73;;;25.93;;
8399;SDS011;4237;47.030;15.396;2022-12-18T16:22:21;49.90;;;25.23;;
8399;SDS011;4237;47.030;15.396;2022-12-18T16:24:51;51.87;;;26.90;;
8399;SDS011;4237;47.030;15.396;2022-12-18T16:27:21;49.60;;;26.23;;
8399;SDS011;4237;47.030;15.396;2022-12-18T16:29:50;48.37;;;26.70;;